sensor_id;sensor_type;location;lat;lon;timestamp;P1;durP1;ratioP1;P2;durP2;ratioP2
22929;SDS011;11630;42.660;23.292;2022-08-23T00:02:09;18.63;;;14.87;;
22929;SDS011;11630;42.660;23.292;2022-08-23T00:04:40;24.73;;;14.10;;
22929;SDS011;11630;42.660;23.292;2022-08-23T00:07:12;16.93;;;13.13;;
22929;SDS011;11630;42.660;23.292;2022-08-23T00:09:43;16.37;;;14.23;;
22929;SDS011;11630;42.660;23.292;2022-08-23T00:12:17;22.33;;;14.37;;
22929;SDS011;11630;42.660;23.292;2022-08-23T00:14:49;21.10;;;15.13;;
22929;SDS011;11630;42.660;23.292;2022-08-23T00:17:20;29.17;;;16.97;;
22929;SDS011;11630;42.660;23.292;2022-08-23T00:19:51;23.93;;;15.07;;
22929;SDS011;11630;42.660;23.292;2022-08-23T00:22:23;20.70;;;14.93;;
22929;SDS011;11630;42.660;23.292;2022-08-23T00:24:57;17.27;;;13.73;;
22929;SDS011;11630;42.660;23.292;2022-08-23T00:27:26;21.67;;;14.73;;
22929;SDS011;11630;42.660;23.292;2022-08-23T00:29:56;19.67;;;16.07;;
22929;SDS011;11630;42.660;23.292;2022-08-23T00:32:29;19.13;;;15.27;;
22929;SDS011;11630;42.660;23.292;2022-08-23T00:35:00;18.90;;;14.33;;
22929;SDS011;11630;42.660;23.292;2022-08-23T00:37:35;21.23;;;14.73;;
22929;SDS011;11630;42.660;23.292;2022-08-23T00:40:08;21.93;;;15.27;;
22929;SDS011;11630;42.660;23.292;2022-08-23T00:45:48;21.00;;;15.07;;
22929;SDS011;11630;42.660;23.292;2022-08-23T00:48:33;22.73;;;14.83;;
22929;SDS011;11630;42.660;23.292;2022-08-23T00:51:14;19.73;;;15.33;;
22929;SDS011;11630;42.660;23.292;2022-08-23T00:53:54;17.83;;;14.43;;
22929;SDS011;11630;42.660;23.292;2022-08-23T00:56:26;16.17;;;14.33;;
22929;SDS011;11630;42.660;23.292;2022-08-23T00:58:58;18.30;;;15.60;;
22929;SDS011;11630;42.660;23.292;2022-08-23T01:01:31;19.37;;;14.43;;
22929;SDS011;11630;42.660;23.292;2022-08-23T01:04:02;23.83;;;15.47;;
22929;SDS011;11630;42.660;23.292;2022-08-23T01:06:39;25.07;;;15.20;;
22929;SDS011;11630;42.660;23.292;2022-08-23T01:09:07;22.20;;;16.03;;
22929;SDS011;11630;42.660;23.292;2022-08-23T01:11:41;22.07;;;15.70;;
22929;SDS011;11630;42.660;23.292;2022-08-23T01:14:27;27.50;;;17.47;;
22929;SDS011;11630;42.660;23.292;2022-08-23T01:17:02;20.43;;;15.23;;
22929;SDS011;11630;42.660;23.292;2022-08-23T01:19:33;26.47;;;16.60;;
22929;SDS011;11630;42.660;23.292;2022-08-23T01:22:08;20.20;;;14.77;;
22929;SDS011;11630;42.660;23.292;2022-08-23T01:24:50;22.57;;;15.43;;
22929;SDS011;11630;42.660;23.292;2022-08-23T01:27:22;24.23;;;15.83;;
22929;SDS011;11630;42.660;23.292;2022-08-23T01:29:53;26.87;;;15.80;;
22929;SDS011;11630;42.660;23.292;2022-08-23T01:32:23;24.27;;;17.33;;
22929;SDS011;11630;42.660;23.292;2022-08-23T01:34:55;23.73;;;15.50;;
22929;SDS011;11630;42.660;23.292;2022-08-23T01:37:26;25.27;;;15.70;;
22929;SDS011;11630;42.660;23.292;2022-08-23T01:39:57;27.37;;;15.77;;
22929;SDS011;11630;42.660;23.292;2022-08-23T01:42:27;18.67;;;15.43;;
22929;SDS011;11630;42.660;23.292;2022-08-23T01:44:56;22.17;;;16.17;;
22929;SDS011;11630;42.660;23.292;2022-08-23T01:47:30;21.50;;;15.40;;
22929;SDS011;11630;42.660;23.292;2022-08-23T01:50:02;20.53;;;16.30;;
22929;SDS011;11630;42.660;23.292;2022-08-23T01:52:35;23.80;;;16.67;;
22929;SDS011;11630;42.660;23.292;2022-08-23T01:55:08;23.90;;;15.23;;
22929;SDS011;11630;42.660;23.292;2022-08-23T01:57:37;23.97;;;16.23;;
22929;SDS011;11630;42.660;23.292;2022-08-23T02:00:10;22.30;;;15.83;;
22929;SDS011;11630;42.660;23.292;2022-08-23T02:02:40;17.47;;;14.67;;
22929;SDS011;11630;42.660;23.292;2022-08-23T02:05:10;20.17;;;15.17;;
22929;SDS011;11630;42.660;23.292;2022-08-23T02:07:41;21.10;;;15.23;;
22929;SDS011;11630;42.660;23.292;2022-08-23T02:10:13;21.70;;;15.53;;
22929;SDS011;11630;42.660;23.292;2022-08-23T02:12:45;25.23;;;19.00;;
22929;SDS011;11630;42.660;23.292;2022-08-23T02:15:15;23.93;;;17.63;;
22929;SDS011;11630;42.660;23.292;2022-08-23T02:17:45;25.07;;;17.13;;
22929;SDS011;11630;42.660;23.292;2022-08-23T02:20:17;24.53;;;18.17;;
22929;SDS011;11630;42.660;23.292;2022-08-23T02:22:48;19.13;;;15.80;;
22929;SDS011;11630;42.660;23.292;2022-08-23T02:25:19;20.23;;;16.50;;
22929;SDS011;11630;42.660;23.292;2022-08-23T02:27:49;19.10;;;15.67;;
22929;SDS011;11630;42.660;23.292;2022-08-23T02:30:20;16.60;;;14.80;;
22929;SDS011;11630;42.660;23.292;2022-08-23T02:32:51;21.77;;;15.07;;
22929;SDS011;11630;42.660;23.292;2022-08-23T02:35:21;19.27;;;16.13;;
22929;SDS011;11630;42.660;23.292;2022-08-23T02:37:52;13.93;;;12.17;;
22929;SDS011;11630;42.660;23.292;2022-08-23T02:40:23;15.23;;;11.47;;
22929;SDS011;11630;42.660;23.292;2022-08-23T02:42:54;13.00;;;11.60;;
22929;SDS011;11630;42.660;23.292;2022-08-23T02:45:26;13.63;;;11.20;;
22929;SDS011;11630;42.660;23.292;2022-08-23T02:47:57;14.07;;;11.67;;
22929;SDS011;11630;42.660;23.292;2022-08-23T02:50:27;12.10;;;9.90;;
22929;SDS011;11630;42.660;23.292;2022-08-23T02:52:58;14.13;;;10.90;;
22929;SDS011;11630;42.660;23.292;2022-08-23T02:55:30;13.23;;;10.80;;
22929;SDS011;11630;42.660;23.292;2022-08-23T02:58:01;17.30;;;11.47;;
22929;SDS011;11630;42.660;23.292;2022-08-23T03:00:32;13.97;;;11.10;;
22929;SDS011;11630;42.660;23.292;2022-08-23T03:03:02;15.90;;;11.20;;
22929;SDS011;11630;42.660;23.292;2022-08-23T03:05:36;15.07;;;10.97;;
22929;SDS011;11630;42.660;23.292;2022-08-23T03:08:07;12.97;;;10.60;;
22929;SDS011;11630;42.660;23.292;2022-08-23T03:10:41;13.63;;;10.57;;
22929;SDS011;11630;42.660;23.292;2022-08-23T03:13:13;13.20;;;10.13;;
22929;SDS011;11630;42.660;23.292;2022-08-23T03:15:44;13.50;;;10.23;;
22929;SDS011;11630;42.660;23.292;2022-08-23T03:18:16;11.20;;;10.00;;
22929;SDS011;11630;42.660;23.292;2022-08-23T03:20:47;13.67;;;9.13;;
22929;SDS011;11630;42.660;23.292;2022-08-23T03:23:18;11.57;;;8.63;;
22929;SDS011;11630;42.660;23.292;2022-08-23T03:25:49;11.20;;;8.50;;
22929;SDS011;11630;42.660;23.292;2022-08-23T03:28:20;12.93;;;8.57;;
22929;SDS011;11630;42.660;23.292;2022-08-23T03:30:51;11.47;;;8.07;;
22929;SDS011;11630;42.660;23.292;2022-08-23T03:33:22;9.17;;;8.17;;
22929;SDS011;11630;42.660;23.292;2022-08-23T03:35:58;10.00;;;8.27;;
22929;SDS011;11630;42.660;23.292;2022-08-23T03:38:28;10.77;;;8.43;;
22929;SDS011;11630;42.660;23.292;2022-08-23T03:41:00;17.10;;;9.10;;
22929;SDS011;11630;42.660;23.292;2022-08-23T03:43:30;11.90;;;8.53;;
22929;SDS011;11630;42.660;23.292;2022-08-23T03:46:01;15.60;;;8.40;;
22929;SDS011;11630;42.660;23.292;2022-08-23T03:48:32;9.33;;;8.33;;
22929;SDS011;11630;42.660;23.292;2022-08-23T03:51:03;10.33;;;7.93;;
22929;SDS011;11630;42.660;23.292;2022-08-23T03:53:34;9.37;;;7.73;;
22929;SDS011;11630;42.660;23.292;2022-08-23T03:56:05;11.40;;;7.80;;
22929;SDS011;11630;42.660;23.292;2022-08-23T03:58:36;9.33;;;7.13;;
22929;SDS011;11630;42.660;23.292;2022-08-23T04:01:06;9.13;;;7.83;;
22929;SDS011;11630;42.660;23.292;2022-08-23T04:03:37;9.37;;;8.37;;
22929;SDS011;11630;42.660;23.292;2022-08-23T04:06:09;13.53;;;10.93;;
22929;SDS011;11630;42.660;23.292;2022-08-23T04:08:40;21.63;;;14.07;;
22929;SDS011;11630;42.660;23.292;2022-08-23T04:11:11;20.30;;;14.87;;
22929;SDS011;11630;42.660;23.292;2022-08-23T04:13:42;20.30;;;14.10;;
22929;SDS011;11630;42.660;23.292;2022-08-23T04:16:13;29.90;;;15.03;;
22929;SDS011;11630;42.660;23.292;2022-08-23T04:18:44;21.37;;;15.03;;
22929;SDS011;11630;42.660;23.292;2022-08-23T04:21:17;24.30;;;16.33;;
22929;SDS011;11630;42.660;23.292;2022-08-23T04:23:48;20.33;;;17.03;;
22929;SDS011;11630;42.660;23.292;2022-08-23T04:26:18;25.53;;;16.93;;
22929;SDS011;11630;42.660;23.292;2022-08-23T04:28:49;27.67;;;17.33;;
22929;SDS011;11630;42.660;23.292;2022-08-23T04:31:21;22.43;;;17.03;;
22929;SDS011;11630;42.660;23.292;2022-08-23T04:33:55;28.00;;;17.63;;
22929;SDS011;11630;42.660;23.292;2022-08-23T04:36:26;24.17;;;17.47;;
22929;SDS011;11630;42.660;23.292;2022-08-23T04:38:58;28.33;;;17.60;;
22929;SDS011;11630;42.660;23.292;2022-08-23T04:41:28;34.13;;;17.83;;
22929;SDS011;11630;42.660;23.292;2022-08-23T04:44:15;22.00;;;16.00;;
22929;SDS011;11630;42.660;23.292;2022-08-23T04:46:47;26.23;;;16.83;;
22929;SDS011;11630;42.660;23.292;2022-08-23T04:49:26;23.83;;;17.67;;
22929;SDS011;11630;42.660;23.292;2022-08-23T04:51:58;27.13;;;17.33;;
22929;SDS011;11630;42.660;23.292;2022-08-23T04:54:29;24.57;;;17.27;;
22929;SDS011;11630;42.660;23.292;2022-08-23T04:57:00;25.40;;;17.33;;
22929;SDS011;11630;42.660;23.292;2022-08-23T04:59:31;24.73;;;17.00;;
22929;SDS011;11630;42.660;23.292;2022-08-23T05:02:02;21.87;;;17.40;;
22929;SDS011;11630;42.660;23.292;2022-08-23T05:04:33;26.60;;;18.70;;
22929;SDS011;11630;42.660;23.292;2022-08-23T05:07:04;25.30;;;18.80;;
22929;SDS011;11630;42.660;23.292;2022-08-23T05:09:35;28.07;;;17.63;;
22929;SDS011;11630;42.660;23.292;2022-08-23T05:12:06;24.13;;;15.97;;
22929;SDS011;11630;42.660;23.292;2022-08-23T05:14:37;26.20;;;19.13;;
22929;SDS011;11630;42.660;23.292;2022-08-23T05:17:08;34.50;;;22.60;;
22929;SDS011;11630;42.660;23.292;2022-08-23T05:19:39;35.63;;;22.60;;
22929;SDS011;11630;42.660;23.292;2022-08-23T05:22:10;30.40;;;23.73;;
22929;SDS011;11630;42.660;23.292;2022-08-23T05:24:43;25.77;;;20.57;;
22929;SDS011;11630;42.660;23.292;2022-08-23T05:27:14;28.07;;;21.40;;
22929;SDS011;11630;42.660;23.292;2022-08-23T05:29:45;31.40;;;23.00;;
22929;SDS011;11630;42.660;23.292;2022-08-23T05:32:17;37.17;;;25.57;;
22929;SDS011;11630;42.660;23.292;2022-08-23T05:34:48;39.53;;;25.07;;
22929;SDS011;11630;42.660;23.292;2022-08-23T05:37:20;28.83;;;23.47;;
22929;SDS011;11630;42.660;23.292;2022-08-23T05:39:52;26.20;;;20.87;;
22929;SDS011;11630;42.660;23.292;2022-08-23T05:42:21;25.27;;;20.13;;
22929;SDS011;11630;42.660;23.292;2022-08-23T05:44:53;27.50;;;19.43;;
22929;SDS011;11630;42.660;23.292;2022-08-23T05:47:23;29.60;;;20.50;;
22929;SDS011;11630;42.660;23.292;2022-08-23T05:49:53;31.60;;;20.77;;
22929;SDS011;11630;42.660;23.292;2022-08-23T05:52:24;32.30;;;20.00;;
22929;SDS011;11630;42.660;23.292;2022-08-23T05:54:54;24.53;;;20.17;;
22929;SDS011;11630;42.660;23.292;2022-08-23T05:57:25;25.73;;;21.13;;
22929;SDS011;11630;42.660;23.292;2022-08-23T05:59:57;22.93;;;19.97;;
22929;SDS011;11630;42.660;23.292;2022-08-23T06:02:28;26.13;;;19.90;;
22929;SDS011;11630;42.660;23.292;2022-08-23T06:04:59;26.13;;;20.77;;
22929;SDS011;11630;42.660;23.292;2022-08-23T06:07:29;27.97;;;20.40;;
22929;SDS011;11630;42.660;23.292;2022-08-23T06:10:03;24.13;;;18.60;;
22929;SDS011;11630;42.660;23.292;2022-08-23T06:12:35;31.20;;;19.83;;
22929;SDS011;11630;42.660;23.292;2022-08-23T06:15:05;27.50;;;20.50;;
22929;SDS011;11630;42.660;23.292;2022-08-23T06:17:37;31.03;;;21.70;;
22929;SDS011;11630;42.660;23.292;2022-08-23T06:20:08;27.30;;;19.70;;
22929;SDS011;11630;42.660;23.292;2022-08-23T06:22:39;26.53;;;19.60;;
22929;SDS011;11630;42.660;23.292;2022-08-23T06:25:10;26.67;;;19.10;;
22929;SDS011;11630;42.660;23.292;2022-08-23T06:27:41;23.33;;;19.20;;
22929;SDS011;11630;42.660;23.292;2022-08-23T06:30:12;30.93;;;20.20;;
22929;SDS011;11630;42.660;23.292;2022-08-23T06:32:43;29.37;;;21.03;;
22929;SDS011;11630;42.660;23.292;2022-08-23T06:35:14;28.13;;;20.67;;
22929;SDS011;11630;42.660;23.292;2022-08-23T06:37:47;24.27;;;18.67;;
22929;SDS011;11630;42.660;23.292;2022-08-23T06:40:18;23.63;;;18.07;;
22929;SDS011;11630;42.660;23.292;2022-08-23T06:42:49;22.57;;;18.23;;
22929;SDS011;11630;42.660;23.292;2022-08-23T06:45:21;20.27;;;16.73;;
22929;SDS011;11630;42.660;23.292;2022-08-23T06:47:51;18.50;;;16.50;;
22929;SDS011;11630;42.660;23.292;2022-08-23T06:50:22;22.30;;;16.13;;
22929;SDS011;11630;42.660;23.292;2022-08-23T06:52:52;23.87;;;17.00;;
22929;SDS011;11630;42.660;23.292;2022-08-23T06:55:23;24.93;;;16.90;;
22929;SDS011;11630;42.660;23.292;2022-08-23T06:57:54;23.77;;;16.10;;
22929;SDS011;11630;42.660;23.292;2022-08-23T07:00:25;17.77;;;15.93;;
22929;SDS011;11630;42.660;23.292;2022-08-23T07:02:56;18.50;;;15.53;;
22929;SDS011;11630;42.660;23.292;2022-08-23T07:05:26;20.53;;;15.93;;
22929;SDS011;11630;42.660;23.292;2022-08-23T07:07:57;19.17;;;15.40;;
22929;SDS011;11630;42.660;23.292;2022-08-23T07:10:29;18.47;;;14.07;;
22929;SDS011;11630;42.660;23.292;2022-08-23T07:13:01;20.87;;;15.63;;
22929;SDS011;11630;42.660;23.292;2022-08-23T07:15:31;21.87;;;15.40;;
22929;SDS011;11630;42.660;23.292;2022-08-23T07:18:03;28.90;;;17.03;;
22929;SDS011;11630;42.660;23.292;2022-08-23T07:20:32;21.67;;;17.30;;
22929;SDS011;11630;42.660;23.292;2022-08-23T07:23:03;29.53;;;17.67;;
22929;SDS011;11630;42.660;23.292;2022-08-23T07:25:34;19.63;;;15.27;;
22929;SDS011;11630;42.660;23.292;2022-08-23T07:28:06;19.10;;;14.87;;
22929;SDS011;11630;42.660;23.292;2022-08-23T07:30:37;17.63;;;14.63;;
22929;SDS011;11630;42.660;23.292;2022-08-23T07:33:07;22.83;;;15.40;;
22929;SDS011;11630;42.660;23.292;2022-08-23T07:35:45;20.73;;;14.10;;
22929;SDS011;11630;42.660;23.292;2022-08-23T07:38:16;17.80;;;15.07;;
22929;SDS011;11630;42.660;23.292;2022-08-23T07:40:47;25.43;;;15.53;;
22929;SDS011;11630;42.660;23.292;2022-08-23T07:43:18;28.43;;;15.43;;
22929;SDS011;11630;42.660;23.292;2022-08-23T07:45:49;22.43;;;16.10;;
22929;SDS011;11630;42.660;23.292;2022-08-23T07:48:20;25.67;;;15.47;;
22929;SDS011;11630;42.660;23.292;2022-08-23T07:50:51;18.33;;;14.50;;
22929;SDS011;11630;42.660;23.292;2022-08-23T07:53:23;21.80;;;14.13;;
22929;SDS011;11630;42.660;23.292;2022-08-23T07:55:54;27.53;;;15.70;;
22929;SDS011;11630;42.660;23.292;2022-08-23T07:58:25;27.10;;;16.73;;
22929;SDS011;11630;42.660;23.292;2022-08-23T08:01:06;18.70;;;14.80;;
22929;SDS011;11630;42.660;23.292;2022-08-23T08:03:48;17.83;;;14.37;;
22929;SDS011;11630;42.660;23.292;2022-08-23T08:06:24;20.73;;;15.97;;
22929;SDS011;11630;42.660;23.292;2022-08-23T08:08:51;23.13;;;15.53;;
22929;SDS011;11630;42.660;23.292;2022-08-23T08:11:24;21.07;;;15.00;;
22929;SDS011;11630;42.660;23.292;2022-08-23T08:13:57;15.63;;;13.87;;
22929;SDS011;11630;42.660;23.292;2022-08-23T08:16:30;18.27;;;15.00;;
22929;SDS011;11630;42.660;23.292;2022-08-23T08:19:01;22.80;;;15.23;;
22929;SDS011;11630;42.660;23.292;2022-08-23T08:21:33;23.13;;;16.43;;
22929;SDS011;11630;42.660;23.292;2022-08-23T08:24:09;19.10;;;15.73;;
22929;SDS011;11630;42.660;23.292;2022-08-23T08:26:36;23.30;;;17.43;;
22929;SDS011;11630;42.660;23.292;2022-08-23T08:29:08;22.27;;;15.97;;
22929;SDS011;11630;42.660;23.292;2022-08-23T08:31:38;21.17;;;15.90;;
22929;SDS011;11630;42.660;23.292;2022-08-23T08:34:10;21.83;;;16.37;;
22929;SDS011;11630;42.660;23.292;2022-08-23T08:39:15;18.00;;;15.67;;
22929;SDS011;11630;42.660;23.292;2022-08-23T08:44:38;24.67;;;15.87;;
22929;SDS011;11630;42.660;23.292;2022-08-23T08:47:24;34.27;;;13.90;;
22929;SDS011;11630;42.660;23.292;2022-08-23T08:53:12;18.40;;;13.43;;
22929;SDS011;11630;42.660;23.292;2022-08-23T08:55:47;20.20;;;14.20;;
22929;SDS011;11630;42.660;23.292;2022-08-23T08:58:21;25.00;;;15.07;;
22929;SDS011;11630;42.660;23.292;2022-08-23T09:00:55;21.77;;;14.97;;
22929;SDS011;11630;42.660;23.292;2022-08-23T09:03:28;22.50;;;15.63;;
22929;SDS011;11630;42.660;23.292;2022-08-23T09:06:13;21.40;;;15.73;;
22929;SDS011;11630;42.660;23.292;2022-08-23T09:08:50;22.33;;;13.93;;
22929;SDS011;11630;42.660;23.292;2022-08-23T09:19:21;21.77;;;14.93;;
22929;SDS011;11630;42.660;23.292;2022-08-23T09:21:55;22.47;;;14.00;;
22929;SDS011;11630;42.660;23.292;2022-08-23T09:24:26;17.40;;;14.67;;
22929;SDS011;11630;42.660;23.292;2022-08-23T09:26:58;20.70;;;14.23;;
22929;SDS011;11630;42.660;23.292;2022-08-23T09:29:35;26.27;;;14.20;;
22929;SDS011;11630;42.660;23.292;2022-08-23T09:32:02;19.97;;;15.10;;
22929;SDS011;11630;42.660;23.292;2022-08-23T09:40:38;19.63;;;14.33;;
22929;SDS011;11630;42.660;23.292;2022-08-23T09:42:40;16.43;;;12.93;;
22929;SDS011;11630;42.660;23.292;2022-08-23T09:45:31;18.50;;;12.87;;
22929;SDS011;11630;42.660;23.292;2022-08-23T09:48:04;18.73;;;13.57;;
22929;SDS011;11630;42.660;23.292;2022-08-23T09:50:36;20.10;;;13.37;;
22929;SDS011;11630;42.660;23.292;2022-08-23T09:53:11;15.03;;;13.43;;
22929;SDS011;11630;42.660;23.292;2022-08-23T09:55:50;13.27;;;11.67;;
22929;SDS011;11630;42.660;23.292;2022-08-23T09:58:23;18.27;;;12.40;;
22929;SDS011;11630;42.660;23.292;2022-08-23T10:01:29;21.60;;;13.80;;
22929;SDS011;11630;42.660;23.292;2022-08-23T10:03:39;19.60;;;13.70;;
22929;SDS011;11630;42.660;23.292;2022-08-23T10:06:13;20.03;;;12.90;;
22929;SDS011;11630;42.660;23.292;2022-08-23T10:08:51;20.67;;;13.43;;
22929;SDS011;11630;42.660;23.292;2022-08-23T10:11:25;15.40;;;13.33;;
22929;SDS011;11630;42.660;23.292;2022-08-23T10:13:55;23.07;;;12.47;;
22929;SDS011;11630;42.660;23.292;2022-08-23T10:16:54;21.33;;;12.57;;
22929;SDS011;11630;42.660;23.292;2022-08-23T10:19:41;12.33;;;9.83;;
22929;SDS011;11630;42.660;23.292;2022-08-23T10:22:18;11.80;;;9.10;;
22929;SDS011;11630;42.660;23.292;2022-08-23T10:27:52;17.70;;;11.53;;
22929;SDS011;11630;42.660;23.292;2022-08-23T10:30:49;16.43;;;10.67;;
22929;SDS011;11630;42.660;23.292;2022-08-23T10:33:41;19.80;;;11.67;;
22929;SDS011;11630;42.660;23.292;2022-08-23T10:36:16;12.50;;;9.93;;
22929;SDS011;11630;42.660;23.292;2022-08-23T10:38:56;11.40;;;9.10;;
22929;SDS011;11630;42.660;23.292;2022-08-23T10:44:22;10.50;;;9.50;;
22929;SDS011;11630;42.660;23.292;2022-08-23T10:46:58;13.27;;;10.00;;
22929;SDS011;11630;42.660;23.292;2022-08-23T10:49:34;13.40;;;9.60;;
22929;SDS011;11630;42.660;23.292;2022-08-23T10:52:07;10.93;;;9.77;;
22929;SDS011;11630;42.660;23.292;2022-08-23T10:54:49;14.70;;;10.80;;
22929;SDS011;11630;42.660;23.292;2022-08-23T10:57:33;15.00;;;10.90;;
22929;SDS011;11630;42.660;23.292;2022-08-23T11:00:07;14.60;;;10.97;;
22929;SDS011;11630;42.660;23.292;2022-08-23T11:02:43;12.27;;;10.53;;
22929;SDS011;11630;42.660;23.292;2022-08-23T11:05:21;12.77;;;9.57;;
22929;SDS011;11630;42.660;23.292;2022-08-23T11:07:56;14.57;;;10.83;;
22929;SDS011;11630;42.660;23.292;2022-08-23T11:10:30;14.03;;;10.50;;
22929;SDS011;11630;42.660;23.292;2022-08-23T11:15:45;19.27;;;10.80;;
22929;SDS011;11630;42.660;23.292;2022-08-23T11:18:38;14.77;;;9.90;;
22929;SDS011;11630;42.660;23.292;2022-08-23T11:31:57;22.80;;;11.13;;
22929;SDS011;11630;42.660;23.292;2022-08-23T11:34:40;17.80;;;11.07;;
22929;SDS011;11630;42.660;23.292;2022-08-23T11:48:16;15.03;;;10.07;;
22929;SDS011;11630;42.660;23.292;2022-08-23T11:55:58;16.77;;;11.43;;
22929;SDS011;11630;42.660;23.292;2022-08-23T12:01:26;16.80;;;11.03;;
22929;SDS011;11630;42.660;23.292;2022-08-23T12:03:57;16.70;;;11.83;;
22929;SDS011;11630;42.660;23.292;2022-08-23T12:06:40;16.87;;;12.10;;
22929;SDS011;11630;42.660;23.292;2022-08-23T12:17:04;14.70;;;10.87;;
22929;SDS011;11630;42.660;23.292;2022-08-23T12:19:50;13.87;;;11.00;;
22929;SDS011;11630;42.660;23.292;2022-08-23T12:22:21;14.50;;;10.03;;
22929;SDS011;11630;42.660;23.292;2022-08-23T12:24:56;12.57;;;10.60;;
22929;SDS011;11630;42.660;23.292;2022-08-23T12:30:21;13.33;;;11.03;;
22929;SDS011;11630;42.660;23.292;2022-08-23T12:32:53;14.23;;;10.60;;
22929;SDS011;11630;42.660;23.292;2022-08-23T12:40:49;15.97;;;9.57;;
22929;SDS011;11630;42.660;23.292;2022-08-23T12:43:26;14.50;;;9.40;;
22929;SDS011;11630;42.660;23.292;2022-08-23T12:45:53;12.00;;;8.60;;
22929;SDS011;11630;42.660;23.292;2022-08-23T12:48:29;18.17;;;8.23;;
22929;SDS011;11630;42.660;23.292;2022-08-23T12:51:07;12.97;;;7.30;;
22929;SDS011;11630;42.660;23.292;2022-08-23T12:53:40;8.47;;;6.57;;
22929;SDS011;11630;42.660;23.292;2022-08-23T12:56:16;6.37;;;5.37;;
22929;SDS011;11630;42.660;23.292;2022-08-23T12:58:56;6.93;;;5.53;;
22929;SDS011;11630;42.660;23.292;2022-08-23T13:01:33;8.13;;;5.70;;
22929;SDS011;11630;42.660;23.292;2022-08-23T13:04:08;13.93;;;6.73;;
22929;SDS011;11630;42.660;23.292;2022-08-23T13:06:45;8.37;;;6.53;;
22929;SDS011;11630;42.660;23.292;2022-08-23T13:09:24;7.73;;;6.03;;
22929;SDS011;11630;42.660;23.292;2022-08-23T13:11:55;10.53;;;6.47;;
22929;SDS011;11630;42.660;23.292;2022-08-23T13:14:48;12.50;;;10.00;;
22929;SDS011;11630;42.660;23.292;2022-08-23T13:22:37;13.30;;;11.90;;
22929;SDS011;11630;42.660;23.292;2022-08-23T13:25:10;15.60;;;10.80;;
22929;SDS011;11630;42.660;23.292;2022-08-23T13:30:20;12.20;;;9.63;;
22929;SDS011;11630;42.660;23.292;2022-08-23T13:32:51;15.33;;;9.80;;
22929;SDS011;11630;42.660;23.292;2022-08-23T13:35:41;13.53;;;10.40;;
22929;SDS011;11630;42.660;23.292;2022-08-23T13:38:19;15.63;;;9.80;;
22929;SDS011;11630;42.660;23.292;2022-08-23T13:40:57;17.67;;;11.57;;
22929;SDS011;11630;42.660;23.292;2022-08-23T13:49:02;16.03;;;10.10;;
22929;SDS011;11630;42.660;23.292;2022-08-23T13:51:35;14.83;;;9.37;;
22929;SDS011;11630;42.660;23.292;2022-08-23T13:54:07;14.40;;;9.07;;
22929;SDS011;11630;42.660;23.292;2022-08-23T13:56:43;14.67;;;9.83;;
22929;SDS011;11630;42.660;23.292;2022-08-23T13:59:17;19.53;;;10.17;;
22929;SDS011;11630;42.660;23.292;2022-08-23T14:01:51;18.20;;;10.53;;
22929;SDS011;11630;42.660;23.292;2022-08-23T14:04:22;15.00;;;9.53;;
22929;SDS011;11630;42.660;23.292;2022-08-23T14:06:53;15.23;;;9.17;;
22929;SDS011;11630;42.660;23.292;2022-08-23T14:09:24;22.50;;;9.90;;
22929;SDS011;11630;42.660;23.292;2022-08-23T14:11:57;15.90;;;10.63;;
22929;SDS011;11630;42.660;23.292;2022-08-23T14:14:30;20.80;;;11.20;;
22929;SDS011;11630;42.660;23.292;2022-08-23T14:17:02;15.63;;;9.40;;
22929;SDS011;11630;42.660;23.292;2022-08-23T14:19:34;12.43;;;10.13;;
22929;SDS011;11630;42.660;23.292;2022-08-23T14:22:04;18.47;;;10.87;;
22929;SDS011;11630;42.660;23.292;2022-08-23T14:24:34;14.67;;;9.03;;
22929;SDS011;11630;42.660;23.292;2022-08-23T14:27:07;14.80;;;7.93;;
22929;SDS011;11630;42.660;23.292;2022-08-23T14:29:39;10.33;;;7.70;;
22929;SDS011;11630;42.660;23.292;2022-08-23T14:32:10;11.07;;;7.60;;
22929;SDS011;11630;42.660;23.292;2022-08-23T14:34:40;9.07;;;6.73;;
22929;SDS011;11630;42.660;23.292;2022-08-23T14:37:11;8.80;;;5.87;;
22929;SDS011;11630;42.660;23.292;2022-08-23T14:39:42;12.30;;;5.70;;
22929;SDS011;11630;42.660;23.292;2022-08-23T14:42:14;6.97;;;4.77;;
22929;SDS011;11630;42.660;23.292;2022-08-23T14:44:45;5.60;;;4.83;;
22929;SDS011;11630;42.660;23.292;2022-08-23T14:47:16;6.10;;;5.03;;
22929;SDS011;11630;42.660;23.292;2022-08-23T14:49:47;5.13;;;4.63;;
22929;SDS011;11630;42.660;23.292;2022-08-23T14:52:18;7.13;;;4.93;;
22929;SDS011;11630;42.660;23.292;2022-08-23T14:54:49;6.97;;;4.97;;
22929;SDS011;11630;42.660;23.292;2022-08-23T14:57:20;6.87;;;5.37;;
22929;SDS011;11630;42.660;23.292;2022-08-23T14:59:50;5.83;;;5.23;;
22929;SDS011;11630;42.660;23.292;2022-08-23T15:02:22;8.83;;;6.10;;
22929;SDS011;11630;42.660;23.292;2022-08-23T15:04:53;8.37;;;6.23;;
22929;SDS011;11630;42.660;23.292;2022-08-23T15:07:25;11.90;;;5.93;;
22929;SDS011;11630;42.660;23.292;2022-08-23T15:09:56;10.53;;;6.33;;
22929;SDS011;11630;42.660;23.292;2022-08-23T15:12:26;7.27;;;6.50;;
22929;SDS011;11630;42.660;23.292;2022-08-23T15:14:57;7.47;;;6.50;;
22929;SDS011;11630;42.660;23.292;2022-08-23T15:17:29;7.60;;;6.87;;
22929;SDS011;11630;42.660;23.292;2022-08-23T15:19:59;10.23;;;6.60;;
22929;SDS011;11630;42.660;23.292;2022-08-23T15:22:29;11.73;;;6.87;;
22929;SDS011;11630;42.660;23.292;2022-08-23T15:25:00;10.53;;;8.50;;
22929;SDS011;11630;42.660;23.292;2022-08-23T15:27:30;9.07;;;7.47;;
22929;SDS011;11630;42.660;23.292;2022-08-23T15:30:01;8.83;;;7.93;;
22929;SDS011;11630;42.660;23.292;2022-08-23T15:32:33;13.87;;;7.70;;
22929;SDS011;11630;42.660;23.292;2022-08-23T15:35:03;11.23;;;8.73;;
22929;SDS011;11630;42.660;23.292;2022-08-23T15:37:35;7.73;;;6.17;;
22929;SDS011;11630;42.660;23.292;2022-08-23T15:40:06;9.23;;;6.60;;
22929;SDS011;11630;42.660;23.292;2022-08-23T15:42:37;8.90;;;7.70;;
22929;SDS011;11630;42.660;23.292;2022-08-23T15:45:09;13.33;;;8.27;;
22929;SDS011;11630;42.660;23.292;2022-08-23T15:47:46;13.30;;;9.00;;
22929;SDS011;11630;42.660;23.292;2022-08-23T15:50:18;10.30;;;8.63;;
22929;SDS011;11630;42.660;23.292;2022-08-23T15:52:49;11.87;;;8.60;;
22929;SDS011;11630;42.660;23.292;2022-08-23T15:55:20;9.30;;;8.40;;
22929;SDS011;11630;42.660;23.292;2022-08-23T15:57:54;17.40;;;8.00;;
22929;SDS011;11630;42.660;23.292;2022-08-23T16:00:25;9.97;;;7.60;;
22929;SDS011;11630;42.660;23.292;2022-08-23T16:02:55;9.27;;;8.37;;
22929;SDS011;11630;42.660;23.292;2022-08-23T16:05:27;12.10;;;8.57;;
22929;SDS011;11630;42.660;23.292;2022-08-23T16:07:58;9.43;;;7.13;;
22929;SDS011;11630;42.660;23.292;2022-08-23T16:10:28;14.60;;;8.73;;
22929;SDS011;11630;42.660;23.292;2022-08-23T16:12:59;13.80;;;9.63;;
22929;SDS011;11630;42.660;23.292;2022-08-23T16:15:30;12.10;;;9.03;;
22929;SDS011;11630;42.660;23.292;2022-08-23T16:18:01;16.07;;;9.17;;
22929;SDS011;11630;42.660;23.292;2022-08-23T16:20:32;10.13;;;8.97;;